หน้าหลัก
METAR-TAF:

METAR-TAF

ท่าอากาศยาน :

Sundsvall-Härnösand, สวีเดน

ละติจูด: 62-32N, ลองจิจูด: 017-27E, ความสูง: 4 ม.

การสังเกตสภาพอากาศปัจจุบัน

รายงานได้ทำขึ้นเมื่อ 30 นาทีที่แล้ว ณ เวลา 00:20 UTC
ลม 3 นอตจากตะวันตก/ตะวันตกเฉียงใต้
อุณหภูมิ 13°C
ความชื้น 94%
ความกดอากาศ 1015 hPa
ทัศนวิสัย 10 กม. หรือมากกว่า

METAR: ESNN 130020Z AUTO 25003KT 9999 SCT055/// OVC076/// 13/12 Q1015

เวลา: 02:50 (00:50 UTC)

การพยากรณ์

รายงานได้ทำขึ้นเมื่อ 16 ชั่วโมงและ 20 นาทีที่แล้ว ณ เวลา 08:30 UTC
การพยากรณ์มีผลตั้งแต่วันที่ 12 ณ เวลา 09 UTC จนถึงวันที่ 12 ณ เวลา 11 UTC
ลม 5 นอตจากตะวันตก/ตะวันตกเฉียงเหนือ
ทัศนวิสัย 10 กม. หรือมากกว่า
ไม่มีเมฆต่ำกว่า 1,500 ม. และไม่มีเมฆคิวมูโลนิมบัส

TAF: ESNN 120830Z 1209/1211 29005KT CAVOK

สังเกตการณ์สภาพอากาศและพยากรณ์อากาศของสนามบินมากกว่า 4000 แห่ง (รายงาน METAR และ TAF).

สถานีที่ดูได้จะแสดงไว้ด้วยจุดสีเหลืองและสีแดงบนแผนที่.

เลื่อนเมาส์ไปเหนือจุดเพื่อดูชื่อสถานี.

แล้วคลิกเพื่อดูสังเกตการณ์และการพยากรณ์สภาพอากาศ.

ในการเปลี่ยนแผนที่: คลิกที่ปุ่มสีเขียวที่มีกากบาทสีดำเพื่อซูมเข้า; ที่ปุ่มสีเขียวที่มีขีดเพื่อซูมออก; หรือที่ลูกศรสีเขียวเพื่อไปยังแผนที่ที่อยู่ติดกัน.


METAR-TAF: